Time;durP1;ratioP1;P1;durP2;ratioP2;P2;SDS_P1;SDS_P2;PMS_P1;PMS_P2;Temp;Humidity;BMP_temperature;BMP_pressure;BME280_temperature;BME280_humidity;BME280_pressure;Samples;Min_cycle;Max_cycle;Signal;HPM_P1;HPM_P2
2022/07/02 00:01:09;;;;;;;15.45;3.00;;;;;;;;;;5028157;28;20550;-67
2022/07/02 00:03:37;;;;;;;11.38;2.83;;;;;;;;;;5025506;28;20396;-66
2022/07/02 00:06:05;;;;;;;12.18;2.90;;;;;;;;;;5030420;28;20044;-66
2022/07/02 00:08:31;;;;;;;12.63;2.90;;;;;;;;;;5029028;28;20045;-72
2022/07/02 00:10:59;;;;;;;11.40;2.72;;;;;;;;;;5028484;28;20045;-66
2022/07/02 00:13:26;;;;;;;19.17;2.67;;;;;;;;;;5026066;28;20054;-65
2022/07/02 00:15:53;;;;;;;13.05;2.33;;;;;;;;;;5028693;28;20203;-64
2022/07/02 00:18:20;;;;;;;15.38;2.50;;;;;;;;;;5030795;28;20426;-66
2022/07/02 00:20:48;;;;;;;11.98;2.70;;;;;;;;;;5027787;28;20054;-66
2022/07/02 00:23:13;;;;;;;11.52;2.15;;;;;;;;;;5024883;28;20073;-67
2022/07/02 00:25:47;;;;;;;16.55;2.67;;;;;;;;;;5027666;28;20066;-65
2022/07/02 00:28:16;;;;;;;11.82;2.50;;;;;;;;;;5026223;28;20047;-64
2022/07/02 00:30:47;;;;;;;11.43;2.60;;;;;;;;;;5027319;28;20053;-64
2022/07/02 00:33:14;;;;;;;9.45;2.22;;;;;;;;;;5025016;28;20045;-71
2022/07/02 00:35:41;;;;;;;10.70;2.10;;;;;;;;;;5027712;28;20073;-67
2022/07/02 00:38:07;;;;;;;11.38;2.00;;;;;;;;;;5023348;28;20056;-64
2022/07/02 00:40:34;;;;;;;17.52;2.80;;;;;;;;;;5027500;28;20396;-64
2022/07/02 00:43:00;;;;;;;9.27;1.98;;;;;;;;;;5026951;28;20540;-64
2022/07/02 00:45:26;;;;;;;11.45;2.40;;;;;;;;;;5027748;28;20045;-64
2022/07/02 00:47:56;;;;;;;16.08;2.50;;;;;;;;;;5040913;28;20159;-65
2022/07/02 00:50:23;;;;;;;10.65;2.42;;;;;;;;;;5023734;28;20049;-66
2022/07/02 00:52:50;;;;;;;14.30;3.10;;;;;;;;;;5027268;28;20048;-66
2022/07/02 00:55:15;;;;;;;15.10;3.25;;;;;;;;;;5029935;28;20052;-64
2022/07/02 00:57:45;;;;;;;13.45;3.30;;;;;;;;;;5032081;28;20053;-66
2022/07/02 01:00:14;;;;;;;10.43;3.20;;;;;;;;;;5035119;28;20041;-64
2022/07/02 01:02:43;;;;;;;10.40;3.30;;;;;;;;;;5032316;28;20056;-64
2022/07/02 01:05:10;;;;;;;16.77;3.35;;;;;;;;;;5034768;28;20038;-65
2022/07/02 01:07:37;;;;;;;13.68;2.85;;;;;;;;;;5031873;28;20053;-63
2022/07/02 01:10:18;;;;;;;12.05;3.00;;;;;;;;;;5033236;28;20108;-64
2022/07/02 01:12:47;;;;;;;16.23;3.10;;;;;;;;;;5031264;28;20447;-64
2022/07/02 01:15:13;;;;;;;10.38;2.30;;;;;;;;;;5031500;28;20048;-65
2022/07/02 01:17:40;;;;;;;13.38;2.92;;;;;;;;;;5034190;28;20132;-66
2022/07/02 01:20:07;;;;;;;9.60;2.30;;;;;;;;;;5034529;28;20133;-63
2022/07/02 01:22:37;;;;;;;13.13;2.28;;;;;;;;;;5032270;28;20045;-65
2022/07/02 01:25:04;;;;;;;15.35;2.70;;;;;;;;;;5029962;28;20072;-65
2022/07/02 01:27:30;;;;;;;13.23;2.50;;;;;;;;;;5028911;28;20107;-64
2022/07/02 01:29:56;;;;;;;12.40;2.22;;;;;;;;;;5030369;28;20461;-63
2022/07/02 01:32:22;;;;;;;11.55;2.72;;;;;;;;;;5029381;28;20041;-63
2022/07/02 01:34:51;;;;;;;14.80;3.10;;;;;;;;;;5031052;28;20054;-66
2022/07/02 01:37:19;;;;;;;13.60;3.35;;;;;;;;;;5030983;28;20088;-64
2022/07/02 01:39:46;;;;;;;12.75;4.00;;;;;;;;;;5030792;28;20456;-64
2022/07/02 01:42:13;;;;;;;14.95;3.97;;;;;;;;;;5030441;28;20037;-63
2022/07/02 01:44:39;;;;;;;13.57;4.60;;;;;;;;;;5030441;28;20506;-63
2022/07/02 01:47:07;;;;;;;19.58;5.53;;;;;;;;;;5029602;28;20140;-64
2022/07/02 01:49:34;;;;;;;16.77;4.78;;;;;;;;;;5030022;28;20099;-65
2022/07/02 01:52:00;;;;;;;17.48;4.93;;;;;;;;;;5029014;28;20041;-63
2022/07/02 01:54:26;;;;;;;17.52;5.25;;;;;;;;;;5030329;28;20092;-63
2022/07/02 01:56:52;;;;;;;13.45;4.53;;;;;;;;;;5030505;28;20068;-64
2022/07/02 01:59:19;;;;;;;17.92;4.80;;;;;;;;;;5029632;28;20059;-65
2022/07/02 02:01:46;;;;;;;20.77;4.85;;;;;;;;;;5026939;28;20057;-64
2022/07/02 02:04:12;;;;;;;15.88;4.72;;;;;;;;;;5029737;28;20057;-63
2022/07/02 02:06:39;;;;;;;14.48;4.40;;;;;;;;;;5029184;28;20045;-64
2022/07/02 02:09:05;;;;;;;20.02;4.88;;;;;;;;;;5029932;28;20491;-63
2022/07/02 02:11:32;;;;;;;16.40;3.75;;;;;;;;;;5028658;28;20053;-63
2022/07/02 02:13:58;;;;;;;11.60;4.60;;;;;;;;;;5030380;28;20048;-63
2022/07/02 02:16:28;;;;;;;17.90;4.45;;;;;;;;;;5030992;28;20072;-63
2022/07/02 02:18:56;;;;;;;13.82;4.50;;;;;;;;;;5028676;28;20102;-64
2022/07/02 02:21:24;;;;;;;19.63;4.85;;;;;;;;;;5026748;28;20773;-63
2022/07/02 02:23:51;;;;;;;16.13;4.80;;;;;;;;;;5027290;28;20068;-62
2022/07/02 02:26:17;;;;;;;15.98;5.15;;;;;;;;;;5031458;28;20384;-64
2022/07/02 02:28:42;;;;;;;19.13;5.32;;;;;;;;;;5029407;28;20057;-63
2022/07/02 02:31:08;;;;;;;17.98;4.80;;;;;;;;;;5029481;28;20087;-63
2022/07/02 02:33:34;;;;;;;15.15;4.25;;;;;;;;;;5028594;28;20056;-63
2022/07/02 02:36:00;;;;;;;14.15;4.03;;;;;;;;;;5028234;28;20045;-63
2022/07/02 02:38:26;;;;;;;12.05;3.65;;;;;;;;;;5028762;28;20055;-64
2022/07/02 02:40:52;;;;;;;14.35;3.80;;;;;;;;;;5029421;28;20407;-64
2022/07/02 02:43:18;;;;;;;10.95;3.15;;;;;;;;;;5027577;28;20044;-65
2022/07/02 02:45:44;;;;;;;11.75;2.80;;;;;;;;;;5029611;28;20539;-65
2022/07/02 02:48:10;;;;;;;14.48;3.22;;;;;;;;;;5029385;28;20041;-66
2022/07/02 02:50:36;;;;;;;13.35;3.05;;;;;;;;;;5029546;28;20048;-65
2022/07/02 02:53:02;;;;;;;11.55;3.05;;;;;;;;;;5028223;28;20124;-65
2022/07/02 02:55:29;;;;;;;12.70;2.78;;;;;;;;;;5029320;28;20102;-65
2022/07/02 02:57:55;;;;;;;14.07;2.92;;;;;;;;;;5028075;28;20041;-64
2022/07/02 03:00:21;;;;;;;12.90;3.47;;;;;;;;;;5028830;28;20669;-68
2022/07/02 03:02:47;;;;;;;16.40;3.45;;;;;;;;;;5025871;28;20521;-64
2022/07/02 03:05:13;;;;;;;11.70;2.60;;;;;;;;;;5026130;28;20048;-64
2022/07/02 03:07:39;;;;;;;13.07;2.78;;;;;;;;;;5028251;28;20126;-63
2022/07/02 03:10:06;;;;;;;11.45;2.58;;;;;;;;;;5028753;28;20533;-66
2022/07/02 03:12:31;;;;;;;12.70;3.00;;;;;;;;;;5027810;28;20103;-65
2022/07/02 03:14:57;;;;;;;13.80;3.22;;;;;;;;;;5026483;28;20042;-65
2022/07/02 03:17:23;;;;;;;15.25;3.17;;;;;;;;;;5025806;28;20053;-65
2022/07/02 03:19:51;;;;;;;17.27;3.58;;;;;;;;;;5028481;28;20056;-64
2022/07/02 03:22:17;;;;;;;11.02;2.78;;;;;;;;;;5026444;28;20132;-63
2022/07/02 03:24:44;;;;;;;17.35;3.75;;;;;;;;;;5028756;28;20053;-63
2022/07/02 03:27:09;;;;;;;9.98;3.53;;;;;;;;;;5027499;28;20045;-63
2022/07/02 03:29:35;;;;;;;7.82;3.05;;;;;;;;;;5031078;28;20132;-63
2022/07/02 03:32:01;;;;;;;10.48;3.28;;;;;;;;;;5029877;28;20128;-67
2022/07/02 03:34:27;;;;;;;12.95;3.05;;;;;;;;;;5025768;28;20062;-63
2022/07/02 03:36:53;;;;;;;19.30;3.30;;;;;;;;;;5026561;28;20080;-63
2022/07/02 03:39:19;;;;;;;17.17;3.60;;;;;;;;;;5026370;28;20451;-67
2022/07/02 03:41:45;;;;;;;11.60;3.05;;;;;;;;;;5030152;28;20103;-62
2022/07/02 03:44:11;;;;;;;19.88;3.80;;;;;;;;;;5024048;28;20099;-62
2022/07/02 03:46:37;;;;;;;16.75;3.05;;;;;;;;;;5026053;28;20061;-63
2022/07/02 03:49:02;;;;;;;13.23;3.17;;;;;;;;;;5027563;28;20052;-69
2022/07/02 03:51:28;;;;;;;13.27;3.40;;;;;;;;;;5027659;28;20052;-65
2022/07/02 03:53:54;;;;;;;10.32;3.10;;;;;;;;;;5026802;28;20060;-63
2022/07/02 03:56:20;;;;;;;11.95;3.35;;;;;;;;;;5026668;28;20037;-63
2022/07/02 03:58:46;;;;;;;12.05;3.40;;;;;;;;;;5026850;28;20099;-65
2022/07/02 04:01:12;;;;;;;14.73;3.38;;;;;;;;;;5024088;28;20483;-64
2022/07/02 04:03:38;;;;;;;15.27;3.28;;;;;;;;;;5022288;28;20044;-65
2022/07/02 04:06:04;;;;;;;15.55;3.30;;;;;;;;;;5026225;28;20442;-64
2022/07/02 04:08:30;;;;;;;22.00;3.47;;;;;;;;;;5056188;28;20053;-63
2022/07/02 04:10:56;;;;;;;11.82;3.88;;;;;;;;;;5028019;28;20044;-64
2022/07/02 04:13:22;;;;;;;12.35;3.63;;;;;;;;;;5028338;28;20045;-65
2022/07/02 04:15:48;;;;;;;18.70;3.45;;;;;;;;;;5028555;28;20042;-64
2022/07/02 04:18:13;;;;;;;14.43;3.65;;;;;;;;;;5028362;28;20053;-64
2022/07/02 04:20:39;;;;;;;11.15;3.17;;;;;;;;;;5021996;28;20050;-66
2022/07/02 04:23:05;;;;;;;15.13;3.30;;;;;;;;;;5030306;28;20091;-63
2022/07/02 04:25:31;;;;;;;14.07;3.53;;;;;;;;;;5024033;28;20041;-63
2022/07/02 04:27:57;;;;;;;9.48;3.10;;;;;;;;;;5027775;28;20499;-66
2022/07/02 04:30:23;;;;;;;12.52;3.20;;;;;;;;;;5029737;28;20325;-66
2022/07/02 04:32:49;;;;;;;15.43;3.38;;;;;;;;;;5032994;28;20151;-62
2022/07/02 04:35:15;;;;;;;19.75;3.75;;;;;;;;;;5032031;28;20045;-64
2022/07/02 04:37:40;;;;;;;11.80;3.78;;;;;;;;;;5027078;28;20107;-63
2022/07/02 04:40:07;;;;;;;15.43;3.45;;;;;;;;;;5030991;28;20041;-64
2022/07/02 04:42:33;;;;;;;13.95;3.30;;;;;;;;;;5030105;28;20073;-63
2022/07/02 04:44:59;;;;;;;10.43;3.40;;;;;;;;;;5029699;28;20104;-63
2022/07/02 04:47:25;;;;;;;14.90;3.30;;;;;;;;;;5025482;28;20495;-63
2022/07/02 04:49:51;;;;;;;20.95;4.03;;;;;;;;;;5031803;28;20041;-62
2022/07/02 04:52:17;;;;;;;10.48;3.03;;;;;;;;;;5030837;28;20403;-65
2022/07/02 04:54:43;;;;;;;12.80;3.08;;;;;;;;;;5023445;28;20136;-65
2022/07/02 04:57:09;;;;;;;14.30;4.22;;;;;;;;;;5030472;28;20647;-63
2022/07/02 04:59:35;;;;;;;15.32;3.70;;;;;;;;;;5030958;28;20053;-64
2022/07/02 05:02:01;;;;;;;12.05;3.67;;;;;;;;;;5028346;28;20497;-63
2022/07/02 05:04:27;;;;;;;12.52;3.20;;;;;;;;;;5030164;28;20656;-66
2022/07/02 05:06:53;;;;;;;15.38;3.38;;;;;;;;;;5030829;28;20609;-64
2022/07/02 05:09:19;;;;;;;14.18;3.28;;;;;;;;;;5030284;28;20042;-63
2022/07/02 05:11:44;;;;;;;12.88;3.58;;;;;;;;;;5027436;28;20059;-64
2022/07/02 05:14:11;;;;;;;16.05;3.50;;;;;;;;;;5027083;28;20582;-63
2022/07/02 05:16:36;;;;;;;14.27;3.60;;;;;;;;;;5031384;28;20059;-68
2022/07/02 05:19:02;;;;;;;11.68;3.33;;;;;;;;;;5029265;28;20033;-64
2022/07/02 05:21:28;;;;;;;11.25;3.25;;;;;;;;;;5024560;28;20542;-64
2022/07/02 05:23:54;;;;;;;11.90;3.45;;;;;;;;;;5030640;28;20041;-63
2022/07/02 05:26:20;;;;;;;14.68;3.30;;;;;;;;;;5031411;28;20045;-68
2022/07/02 05:28:46;;;;;;;9.65;3.53;;;;;;;;;;5029067;28;20049;-64
2022/07/02 05:31:12;;;;;;;13.25;3.83;;;;;;;;;;5031701;28;20033;-65
2022/07/02 05:33:37;;;;;;;15.20;3.65;;;;;;;;;;5031574;28;20045;-64
2022/07/02 05:36:04;;;;;;;14.57;3.63;;;;;;;;;;5033175;28;20080;-68
2022/07/02 05:38:29;;;;;;;12.88;4.25;;;;;;;;;;5033917;28;20045;-65
2022/07/02 05:40:55;;;;;;;16.83;3.92;;;;;;;;;;5022612;28;20041;-63
2022/07/02 05:43:21;;;;;;;13.73;3.63;;;;;;;;;;5026130;28;20045;-63
2022/07/02 05:45:48;;;;;;;14.77;3.65;;;;;;;;;;5024695;28;20072;-63
2022/07/02 05:48:14;;;;;;;15.48;3.47;;;;;;;;;;5022961;28;20084;-63
2022/07/02 05:50:40;;;;;;;12.80;3.88;;;;;;;;;;5022729;28;20577;-63
2022/07/02 05:53:06;;;;;;;12.50;3.53;;;;;;;;;;5023497;28;20056;-64
2022/07/02 05:55:32;;;;;;;22.50;4.18;;;;;;;;;;5023196;28;20048;-63
2022/07/02 05:57:58;;;;;;;15.07;3.65;;;;;;;;;;5025557;28;20045;-64
2022/07/02 06:00:24;;;;;;;16.55;4.10;;;;;;;;;;5022006;28;20049;-64
2022/07/02 06:02:49;;;;;;;17.92;4.32;;;;;;;;;;5022486;28;20053;-63
2022/07/02 06:08:00;;;;;;;17.30;4.10;;;;;;;;;;5022814;28;20072;-64
2022/07/02 06:10:26;;;;;;;14.98;4.57;;;;;;;;;;5024433;28;20073;-63
2022/07/02 06:12:53;;;;;;;13.25;3.85;;;;;;;;;;5026584;28;20053;-66
2022/07/02 06:15:20;;;;;;;14.20;3.80;;;;;;;;;;5024113;28;20289;-65
2022/07/02 06:17:47;;;;;;;16.98;4.28;;;;;;;;;;5023003;28;20062;-66
2022/07/02 06:20:14;;;;;;;13.63;4.18;;;;;;;;;;5023210;28;20072;-65
2022/07/02 06:22:40;;;;;;;10.98;3.53;;;;;;;;;;5025188;28;20443;-66
2022/07/02 06:25:08;;;;;;;20.60;4.88;;;;;;;;;;5026203;28;20136;-66
2022/07/02 06:27:34;;;;;;;13.38;3.65;;;;;;;;;;5025362;28;20087;-67
2022/07/02 06:30:02;;;;;;;15.18;3.42;;;;;;;;;;5022439;28;20091;-63
2022/07/02 06:32:28;;;;;;;18.10;3.97;;;;;;;;;;5021823;28;20053;-64
2022/07/02 06:34:54;;;;;;;10.48;3.67;;;;;;;;;;5021845;28;20071;-65
2022/07/02 06:37:20;;;;;;;15.63;3.78;;;;;;;;;;5022689;28;20049;-63
2022/07/02 06:39:46;;;;;;;18.48;3.95;;;;;;;;;;5021967;28;20056;-70
2022/07/02 06:42:22;;;;;;;16.98;4.03;;;;;;;;;;5021989;28;20041;-67
2022/07/02 06:44:53;;;;;;;17.77;4.35;;;;;;;;;;5022344;28;20485;-65
2022/07/02 06:47:20;;;;;;;18.63;3.92;;;;;;;;;;5023888;28;20049;-64
2022/07/02 06:49:47;;;;;;;14.02;3.75;;;;;;;;;;5022393;28;20053;-67
2022/07/02 06:52:14;;;;;;;10.68;3.55;;;;;;;;;;5020616;28;20508;-66
2022/07/02 06:54:40;;;;;;;11.70;3.30;;;;;;;;;;5023240;28;20422;-65
2022/07/02 06:57:06;;;;;;;9.35;2.92;;;;;;;;;;5022686;28;20406;-64
2022/07/02 06:59:33;;;;;;;15.95;3.67;;;;;;;;;;5020725;28;20050;-66
2022/07/02 07:01:59;;;;;;;14.13;3.65;;;;;;;;;;5022522;28;20449;-65
2022/07/02 07:04:28;;;;;;;13.20;4.10;;;;;;;;;;5018880;28;20210;-67
2022/07/02 07:06:56;;;;;;;16.23;4.15;;;;;;;;;;5023341;28;20107;-63
2022/07/02 07:09:26;;;;;;;13.10;3.65;;;;;;;;;;5022690;28;20045;-64
2022/07/02 07:11:52;;;;;;;15.48;3.60;;;;;;;;;;5022395;28;20052;-65
2022/07/02 07:14:19;;;;;;;17.98;4.43;;;;;;;;;;5024646;28;20053;-65
2022/07/02 07:16:45;;;;;;;16.95;4.38;;;;;;;;;;5025273;28;21217;-64
2022/07/02 07:19:11;;;;;;;20.63;4.18;;;;;;;;;;5023568;28;20049;-64
2022/07/02 07:21:42;;;;;;;18.13;4.93;;;;;;;;;;5023592;28;20046;-65
2022/07/02 07:24:09;;;;;;;20.33;4.07;;;;;;;;;;5022010;28;20045;-65
2022/07/02 07:26:36;;;;;;;16.92;4.10;;;;;;;;;;5024546;28;20054;-67
2022/07/02 07:29:05;;;;;;;16.00;4.32;;;;;;;;;;5022434;28;20060;-67
2022/07/02 07:31:31;;;;;;;14.70;4.28;;;;;;;;;;5022322;28;20128;-64
2022/07/02 07:33:57;;;;;;;18.77;4.70;;;;;;;;;;5024675;28;20140;-63
2022/07/02 07:36:26;;;;;;;20.48;5.57;;;;;;;;;;5024297;28;20049;-66
2022/07/02 07:38:52;;;;;;;18.92;5.38;;;;;;;;;;5023955;28;20049;-68
2022/07/02 07:41:20;;;;;;;20.52;4.57;;;;;;;;;;5020900;28;20045;-66
2022/07/02 07:43:46;;;;;;;17.13;4.13;;;;;;;;;;5020959;28;20469;-65
2022/07/02 07:46:12;;;;;;;15.10;4.78;;;;;;;;;;5020554;28;20123;-64
2022/07/02 07:48:38;;;;;;;16.92;4.38;;;;;;;;;;5019873;28;20242;-64
2022/07/02 07:51:05;;;;;;;12.88;4.13;;;;;;;;;;5019137;28;20053;-66
2022/07/02 07:53:31;;;;;;;12.43;3.67;;;;;;;;;;5021060;28;20045;-65
2022/07/02 07:55:57;;;;;;;18.92;4.55;;;;;;;;;;5019977;28;20042;-67
2022/07/02 07:58:23;;;;;;;19.02;5.75;;;;;;;;;;5020708;28;20045;-69
2022/07/02 08:00:49;;;;;;;21.98;5.78;;;;;;;;;;5021407;28;20404;-68
2022/07/02 08:03:17;;;;;;;27.48;8.98;;;;;;;;;;5017802;28;20291;-65
2022/07/02 08:05:46;;;;;;;40.65;12.63;;;;;;;;;;5022427;28;20128;-66
2022/07/02 08:08:12;;;;;;;22.60;6.85;;;;;;;;;;5021425;28;20045;-67
2022/07/02 08:10:39;;;;;;;36.30;11.05;;;;;;;;;;5022747;28;20411;-66
2022/07/02 08:13:05;;;;;;;16.45;4.72;;;;;;;;;;5025221;28;20041;-72
2022/07/02 08:15:31;;;;;;;17.10;4.45;;;;;;;;;;5022770;28;20511;-67
2022/07/02 08:17:57;;;;;;;26.13;7.75;;;;;;;;;;5022864;28;20046;-69
2022/07/02 08:20:23;;;;;;;23.33;7.22;;;;;;;;;;5030340;28;20118;-70
2022/07/02 08:22:51;;;;;;;13.77;3.95;;;;;;;;;;5024709;28;20117;-69
2022/07/02 08:25:17;;;;;;;21.25;5.63;;;;;;;;;;5027751;28;20042;-72
2022/07/02 08:27:45;;;;;;;16.13;5.78;;;;;;;;;;5025316;28;20053;-69
2022/07/02 08:30:11;;;;;;;22.25;6.20;;;;;;;;;;5014651;28;20060;-69
2022/07/02 08:32:38;;;;;;;16.02;5.05;;;;;;;;;;5018425;28;20107;-69
2022/07/02 08:35:05;;;;;;;17.75;5.35;;;;;;;;;;5020550;28;20052;-68
2022/07/02 08:37:31;;;;;;;19.17;4.07;;;;;;;;;;5020311;28;20546;-70
2022/07/02 08:39:57;;;;;;;13.20;3.45;;;;;;;;;;5019884;28;20064;-68
2022/07/02 08:42:30;;;;;;;8.00;2.92;;;;;;;;;;5018689;28;20095;-73
2022/07/02 08:44:59;;;;;;;12.05;3.60;;;;;;;;;;5020904;28;20054;-67
2022/07/02 08:47:27;;;;;;;13.00;3.58;;;;;;;;;;5020534;28;20095;-69
2022/07/02 08:49:54;;;;;;;12.95;3.40;;;;;;;;;;5018593;28;20565;-69
2022/07/02 08:52:26;;;;;;;9.57;2.95;;;;;;;;;;5021676;28;20060;-70
2022/07/02 08:54:53;;;;;;;11.32;2.83;;;;;;;;;;5022979;28;20133;-69
2022/07/02 08:57:21;;;;;;;9.93;2.97;;;;;;;;;;5021706;28;20043;-68
2022/07/02 08:59:47;;;;;;;12.20;3.13;;;;;;;;;;5018524;28;20052;-70
2022/07/02 09:02:14;;;;;;;10.43;2.72;;;;;;;;;;5021621;28;20046;-69
2022/07/02 09:04:44;;;;;;;11.52;2.97;;;;;;;;;;5020008;28;20045;-68
2022/07/02 09:07:13;;;;;;;8.30;2.70;;;;;;;;;;5020285;28;20087;-67
2022/07/02 09:09:42;;;;;;;9.02;2.80;;;;;;;;;;5018288;28;20063;-70
2022/07/02 09:12:14;;;;;;;13.40;3.22;;;;;;;;;;5021483;28;20056;-70
2022/07/02 09:14:42;;;;;;;13.05;3.22;;;;;;;;;;5020710;28;20049;-68
2022/07/02 09:17:10;;;;;;;11.32;2.50;;;;;;;;;;5025797;28;20049;-69
2022/07/02 09:19:38;;;;;;;5.70;2.40;;;;;;;;;;5023333;28;20514;-68
2022/07/02 09:22:05;;;;;;;8.13;2.33;;;;;;;;;;5025681;28;20054;-72
2022/07/02 09:24:44;;;;;;;11.50;2.97;;;;;;;;;;5026104;28;20045;-70
2022/07/02 09:27:15;;;;;;;17.52;2.47;;;;;;;;;;5024688;28;20048;-68
2022/07/02 09:29:45;;;;;;;7.40;3.00;;;;;;;;;;5022074;28;20502;-69
2022/07/02 09:32:12;;;;;;;16.77;3.88;;;;;;;;;;5022822;28;20052;-69
2022/07/02 09:34:46;;;;;;;14.23;3.78;;;;;;;;;;5023968;28;20069;-71
2022/07/02 09:37:23;;;;;;;7.57;2.53;;;;;;;;;;5021413;28;20037;-68
2022/07/02 09:39:51;;;;;;;19.40;3.20;;;;;;;;;;5022839;28;20045;-70
2022/07/02 09:42:25;;;;;;;13.25;2.80;;;;;;;;;;5021878;28;20140;-67
2022/07/02 09:44:52;;;;;;;10.27;2.75;;;;;;;;;;5020993;28;20041;-68
2022/07/02 09:47:39;;;;;;;5.50;2.38;;;;;;;;;;5021366;28;20566;-68
2022/07/02 09:50:09;;;;;;;9.50;2.60;;;;;;;;;;5024219;28;20064;-68
2022/07/02 09:52:45;;;;;;;8.07;2.53;;;;;;;;;;5025114;28;20041;-72
2022/07/02 09:55:38;;;;;;;11.73;2.42;;;;;;;;;;5022457;28;20041;-68
2022/07/02 09:58:05;;;;;;;7.30;2.20;;;;;;;;;;5022028;28;20057;-73
2022/07/02 10:00:33;;;;;;;9.13;2.35;;;;;;;;;;5019221;28;20917;-67
2022/07/02 10:03:01;;;;;;;12.38;2.58;;;;;;;;;;5021332;28;20559;-68
2022/07/02 10:05:29;;;;;;;7.40;2.15;;;;;;;;;;5019434;28;20053;-67
2022/07/02 10:07:58;;;;;;;4.30;1.95;;;;;;;;;;5020108;28;20075;-69
2022/07/02 10:10:39;;;;;;;6.40;2.10;;;;;;;;;;5021508;28;20277;-70
2022/07/02 10:13:10;;;;;;;8.35;2.13;;;;;;;;;;5021858;28;20053;-64
2022/07/02 10:15:42;;;;;;;9.23;2.20;;;;;;;;;;5022170;28;20128;-65
2022/07/02 10:18:08;;;;;;;7.22;2.25;;;;;;;;;;5021762;28;20056;-66
2022/07/02 10:20:35;;;;;;;4.60;1.92;;;;;;;;;;5021269;28;20061;-66
2022/07/02 10:23:03;;;;;;;8.25;1.90;;;;;;;;;;5021958;28;20462;-66
2022/07/02 10:25:31;;;;;;;6.55;2.13;;;;;;;;;;5022474;28;20411;-66
2022/07/02 10:27:58;;;;;;;8.02;1.90;;;;;;;;;;5022077;28;20049;-65
2022/07/02 10:30:34;;;;;;;8.13;2.28;;;;;;;;;;5022700;28;20058;-66
2022/07/02 10:33:33;;;;;;;4.68;1.80;;;;;;;;;;5023841;28;20096;-65
2022/07/02 10:36:01;;;;;;;7.03;2.13;;;;;;;;;;5024453;28;20056;-65
2022/07/02 10:38:37;;;;;;;6.75;1.95;;;;;;;;;;5021392;28;20072;-65
2022/07/02 10:41:03;;;;;;;7.60;2.13;;;;;;;;;;5022413;28;20049;-65
2022/07/02 10:43:33;;;;;;;12.25;2.10;;;;;;;;;;5021811;28;20049;-66
2022/07/02 10:46:07;;;;;;;19.50;2.88;;;;;;;;;;5022302;28;20085;-65
2022/07/02 10:48:54;;;;;;;5.22;2.00;;;;;;;;;;5020965;28;20053;-66
2022/07/02 10:51:35;;;;;;;7.93;2.05;;;;;;;;;;5019568;28;20175;-71
2022/07/02 10:54:05;;;;;;;6.57;1.80;;;;;;;;;;5022607;28;20050;-67
2022/07/02 10:56:43;;;;;;;7.45;1.90;;;;;;;;;;5021774;28;20049;-64
2022/07/02 10:59:26;;;;;;;10.90;1.77;;;;;;;;;;5019251;28;20056;-67
2022/07/02 11:02:05;;;;;;;10.60;2.00;;;;;;;;;;5021349;28;20049;-65
2022/07/02 11:04:31;;;;;;;8.10;1.70;;;;;;;;;;5022504;28;20049;-64
2022/07/02 11:07:11;;;;;;;3.63;1.48;;;;;;;;;;5021037;28;20056;-66
2022/07/02 11:09:50;;;;;;;5.50;1.52;;;;;;;;;;5021022;28;20155;-65
2022/07/02 11:12:26;;;;;;;9.38;2.08;;;;;;;;;;5021394;28;20053;-66
2022/07/02 11:14:56;;;;;;;6.40;1.70;;;;;;;;;;5021061;28;20566;-69
2022/07/02 11:17:26;;;;;;;4.57;1.70;;;;;;;;;;5022815;28;20049;-64
2022/07/02 11:19:58;;;;;;;8.88;2.45;;;;;;;;;;5021754;28;20083;-65
2022/07/02 11:22:30;;;;;;;6.35;1.92;;;;;;;;;;5021619;28;20059;-70
2022/07/02 11:24:57;;;;;;;7.68;1.80;;;;;;;;;;5020413;28;20120;-64
2022/07/02 11:27:23;;;;;;;6.57;1.75;;;;;;;;;;5021404;28;20352;-64
2022/07/02 11:29:53;;;;;;;7.47;1.80;;;;;;;;;;5019247;28;20058;-67
2022/07/02 11:32:19;;;;;;;8.77;1.70;;;;;;;;;;5019318;28;20049;-66
2022/07/02 11:34:45;;;;;;;6.90;1.90;;;;;;;;;;5021238;28;20049;-64
2022/07/02 11:37:21;;;;;;;7.22;1.92;;;;;;;;;;5017897;28;20045;-66
2022/07/02 11:39:47;;;;;;;8.18;2.00;;;;;;;;;;5019937;28;20432;-64
2022/07/02 11:42:13;;;;;;;5.72;1.80;;;;;;;;;;5019850;28;20048;-63
2022/07/02 11:44:39;;;;;;;6.75;1.80;;;;;;;;;;5021191;28;20522;-64
2022/07/02 11:47:04;;;;;;;6.75;1.80;;;;;;;;;;5020900;28;20045;-64
2022/07/02 11:49:37;;;;;;;6.50;1.73;;;;;;;;;;5019499;28;20060;-65
2022/07/02 11:52:05;;;;;;;6.68;1.52;;;;;;;;;;5020853;28;20049;-66
2022/07/02 11:54:31;;;;;;;4.35;2.10;;;;;;;;;;5021489;28;20489;-65
2022/07/02 11:56:57;;;;;;;6.65;1.83;;;;;;;;;;5021009;28;20049;-64
2022/07/02 11:59:24;;;;;;;9.18;2.45;;;;;;;;;;5019112;28;20123;-65
2022/07/02 12:01:52;;;;;;;5.50;1.80;;;;;;;;;;5019499;28;20053;-66
2022/07/02 12:04:20;;;;;;;9.52;1.77;;;;;;;;;;5020593;28;20503;-65
2022/07/02 12:06:52;;;;;;;7.10;1.88;;;;;;;;;;5019076;28;20541;-67
2022/07/02 12:09:22;;;;;;;10.70;1.95;;;;;;;;;;5020766;28;20037;-68
2022/07/02 12:11:48;;;;;;;9.27;2.00;;;;;;;;;;5021940;28;20392;-64
2022/07/02 12:14:15;;;;;;;7.43;1.90;;;;;;;;;;5023222;28;20049;-66
2022/07/02 12:16:44;;;;;;;7.57;1.77;;;;;;;;;;5022199;28;20150;-66
2022/07/02 12:19:12;;;;;;;12.43;2.28;;;;;;;;;;5020242;28;20045;-66
2022/07/02 12:21:42;;;;;;;5.35;2.40;;;;;;;;;;5023039;28;20053;-65
2022/07/02 12:24:24;;;;;;;5.72;2.15;;;;;;;;;;5020439;28;20049;-66
2022/07/02 12:26:53;;;;;;;5.75;2.20;;;;;;;;;;5020945;28;20048;-63
2022/07/02 12:32:11;;;;;;;7.50;1.85;;;;;;;;;;5020896;28;20123;-64
2022/07/02 12:34:40;;;;;;;8.18;2.42;;;;;;;;;;5022368;28;20042;-66
2022/07/02 12:37:07;;;;;;;6.88;1.98;;;;;;;;;;5021424;28;20049;-64
2022/07/02 12:39:38;;;;;;;4.28;1.80;;;;;;;;;;5019505;28;20085;-65
2022/07/02 12:42:15;;;;;;;3.55;1.52;;;;;;;;;;5019298;28;20453;-63
2022/07/02 12:45:07;;;;;;;6.65;1.80;;;;;;;;;;5019596;28;20049;-64
2022/07/02 12:47:37;;;;;;;6.72;1.80;;;;;;;;;;5020444;28;20053;-64
2022/07/02 12:50:05;;;;;;;4.03;1.50;;;;;;;;;;5021021;28;20057;-64
2022/07/02 12:52:42;;;;;;;5.80;1.50;;;;;;;;;;5025070;28;20049;-65
2022/07/02 12:55:29;;;;;;;5.95;2.17;;;;;;;;;;5026166;28;20060;-67
2022/07/02 12:58:00;;;;;;;7.78;1.70;;;;;;;;;;5022879;28;20409;-66
2022/07/02 13:00:28;;;;;;;4.18;1.60;;;;;;;;;;5024698;28;20060;-65
2022/07/02 13:03:00;;;;;;;6.65;1.50;;;;;;;;;;5024876;28;20049;-63
2022/07/02 13:05:26;;;;;;;6.72;1.60;;;;;;;;;;5025202;28;20633;-66
2022/07/02 13:07:52;;;;;;;7.93;1.73;;;;;;;;;;5024507;28;20109;-65
2022/07/02 13:10:18;;;;;;;4.57;1.60;;;;;;;;;;5026031;28;20132;-63
2022/07/02 13:12:44;;;;;;;4.97;1.60;;;;;;;;;;5024932;28;20465;-63
2022/07/02 13:15:10;;;;;;;10.50;1.80;;;;;;;;;;5026649;28;20281;-64
2022/07/02 13:17:36;;;;;;;5.88;1.83;;;;;;;;;;5026625;28;20063;-64
2022/07/02 13:20:03;;;;;;;6.25;1.52;;;;;;;;;;5025110;28;20336;-64
2022/07/02 13:22:29;;;;;;;7.65;1.40;;;;;;;;;;5026862;28;20636;-66
2022/07/02 13:24:56;;;;;;;5.55;1.88;;;;;;;;;;5025730;28;20060;-63
2022/07/02 13:27:22;;;;;;;4.90;1.85;;;;;;;;;;5026319;28;20041;-66
2022/07/02 13:29:52;;;;;;;9.05;1.90;;;;;;;;;;5024478;28;20050;-65
2022/07/02 13:32:18;;;;;;;5.05;1.80;;;;;;;;;;5023905;28;20048;-63
2022/07/02 13:34:44;;;;;;;8.40;2.05;;;;;;;;;;5024685;28;20073;-65
2022/07/02 13:37:10;;;;;;;6.18;1.70;;;;;;;;;;5024969;28;20049;-65
2022/07/02 13:39:36;;;;;;;5.57;1.80;;;;;;;;;;5022229;28;20075;-65
2022/07/02 13:42:02;;;;;;;7.53;1.67;;;;;;;;;;5023384;28;20049;-68
2022/07/02 13:44:33;;;;;;;3.38;1.60;;;;;;;;;;5023051;28;20049;-65
2022/07/02 13:47:00;;;;;;;7.60;1.60;;;;;;;;;;5023114;28;20056;-64
2022/07/02 13:49:26;;;;;;;7.00;2.05;;;;;;;;;;5021725;28;20149;-65
2022/07/02 13:51:52;;;;;;;6.25;1.92;;;;;;;;;;5023227;28;20042;-64
2022/07/02 13:54:19;;;;;;;9.40;1.90;;;;;;;;;;5021536;28;20042;-63
2022/07/02 13:56:45;;;;;;;14.63;2.28;;;;;;;;;;5024230;28;20386;-62
2022/07/02 13:59:11;;;;;;;5.53;1.88;;;;;;;;;;5022516;28;20132;-66
2022/07/02 14:01:38;;;;;;;6.40;1.77;;;;;;;;;;5022943;28;20133;-63
2022/07/02 14:04:03;;;;;;;4.90;1.38;;;;;;;;;;5022669;28;20411;-64
2022/07/02 14:06:30;;;;;;;6.57;1.85;;;;;;;;;;5022147;28;20054;-65
2022/07/02 14:08:57;;;;;;;5.40;1.83;;;;;;;;;;5021586;28;20913;-64
2022/07/02 14:11:23;;;;;;;6.03;1.35;;;;;;;;;;5022051;28;20068;-65
2022/07/02 14:13:50;;;;;;;4.50;1.40;;;;;;;;;;5021056;28;20057;-67
2022/07/02 14:16:17;;;;;;;4.43;1.45;;;;;;;;;;5021392;28;20129;-65
2022/07/02 14:18:43;;;;;;;3.72;1.50;;;;;;;;;;5019727;28;20049;-65
2022/07/02 14:21:09;;;;;;;6.05;1.63;;;;;;;;;;5021796;28;20060;-65
2022/07/02 14:23:35;;;;;;;3.28;1.20;;;;;;;;;;5021261;28;20050;-64
2022/07/02 14:26:02;;;;;;;9.80;1.30;;;;;;;;;;5020540;28;20057;-66
2022/07/02 14:28:29;;;;;;;3.13;1.40;;;;;;;;;;5022260;28;20077;-65
2022/07/02 14:30:56;;;;;;;5.32;1.70;;;;;;;;;;5022039;28;20041;-66
2022/07/02 14:33:22;;;;;;;5.95;1.65;;;;;;;;;;5022354;28;20275;-65
2022/07/02 14:35:50;;;;;;;5.28;1.35;;;;;;;;;;5022790;28;20089;-69
2022/07/02 14:38:16;;;;;;;4.30;1.60;;;;;;;;;;5021018;28;20091;-64
2022/07/02 14:40:43;;;;;;;5.65;1.45;;;;;;;;;;5018588;28;20168;-68
2022/07/02 14:43:09;;;;;;;5.63;1.38;;;;;;;;;;5023192;28;20434;-66